sensor_id;sensor_type;location;lat;lon;timestamp;pressure;altitude;pressure_sealevel;temperature;humidity
24788;BME280;12883;52.662;5.196;2022-08-25T00:00:35;101759.09;;;22.25;100.00
24788;BME280;12883;52.662;5.196;2022-08-25T00:03:00;101761.25;;;21.80;100.00
24788;BME280;12883;52.662;5.196;2022-08-25T00:05:27;101768.63;;;21.68;100.00
24788;BME280;12883;52.662;5.196;2022-08-25T00:07:53;101763.31;;;21.56;100.00
24788;BME280;12883;52.662;5.196;2022-08-25T00:10:19;101759.97;;;21.49;100.00
24788;BME280;12883;52.662;5.196;2022-08-25T00:12:44;101756.94;;;21.46;100.00
24788;BME280;12883;52.662;5.196;2022-08-25T00:15:10;101761.50;;;21.45;100.00
24788;BME280;12883;52.662;5.196;2022-08-25T00:17:35;101752.03;;;21.43;100.00
24788;BME280;12883;52.662;5.196;2022-08-25T00:20:01;101756.84;;;21.41;100.00
24788;BME280;12883;52.662;5.196;2022-08-25T00:22:26;101754.34;;;21.34;100.00
24788;BME280;12883;52.662;5.196;2022-08-25T00:24:53;101760.06;;;21.38;100.00
24788;BME280;12883;52.662;5.196;2022-08-25T00:27:18;101761.69;;;21.39;100.00
24788;BME280;12883;52.662;5.196;2022-08-25T00:29:43;101759.72;;;21.34;100.00
24788;BME280;12883;52.662;5.196;2022-08-25T00:32:09;101759.22;;;21.37;100.00
24788;BME280;12883;52.662;5.196;2022-08-25T00:34:36;101750.31;;;21.37;100.00
24788;BME280;12883;52.662;5.196;2022-08-25T00:37:04;101749.50;;;21.36;100.00
24788;BME280;12883;52.662;5.196;2022-08-25T00:39:31;101732.88;;;21.28;100.00
24788;BME280;12883;52.662;5.196;2022-08-25T00:41:58;101749.50;;;21.36;100.00
24788;BME280;12883;52.662;5.196;2022-08-25T00:44:26;101772.25;;;21.40;100.00
24788;BME280;12883;52.662;5.196;2022-08-25T00:46:54;101755.03;;;22.44;100.00
24788;BME280;12883;52.662;5.196;2022-08-25T00:49:28;101766.22;;;23.37;100.00
24788;BME280;12883;52.662;5.196;2022-08-25T00:52:08;101769.22;;;23.82;100.00
24788;BME280;12883;52.662;5.196;2022-08-25T00:54:39;101770.25;;;24.22;100.00
24788;BME280;12883;52.662;5.196;2022-08-25T00:57:08;101781.75;;;24.49;100.00
24788;BME280;12883;52.662;5.196;2022-08-25T00:59:35;101753.28;;;22.86;100.00
24788;BME280;12883;52.662;5.196;2022-08-25T01:02:01;101754.09;;;21.90;100.00
24788;BME280;12883;52.662;5.196;2022-08-25T01:04:28;101721.22;;;21.60;100.00
24788;BME280;12883;52.662;5.196;2022-08-25T01:06:55;101734.56;;;21.67;100.00
24788;BME280;12883;52.662;5.196;2022-08-25T01:09:21;101736.09;;;21.63;100.00
24788;BME280;12883;52.662;5.196;2022-08-25T01:11:47;101737.44;;;21.60;100.00
24788;BME280;12883;52.662;5.196;2022-08-25T01:14:17;101735.06;;;21.64;100.00
24788;BME280;12883;52.662;5.196;2022-08-25T01:16:43;101725.81;;;21.60;100.00
24788;BME280;12883;52.662;5.196;2022-08-25T01:19:11;101731.75;;;21.62;100.00
24788;BME280;12883;52.662;5.196;2022-08-25T01:21:44;101715.84;;;21.44;100.00
24788;BME280;12883;52.662;5.196;2022-08-25T01:24:17;101720.91;;;21.57;100.00
24788;BME280;12883;52.662;5.196;2022-08-25T01:26:44;101722.03;;;21.61;100.00
24788;BME280;12883;52.662;5.196;2022-08-25T01:29:09;101722.47;;;21.53;100.00
24788;BME280;12883;52.662;5.196;2022-08-25T01:31:51;101722.53;;;21.58;100.00
24788;BME280;12883;52.662;5.196;2022-08-25T01:34:18;101722.03;;;21.61;100.00
24788;BME280;12883;52.662;5.196;2022-08-25T01:36:43;101720.41;;;21.60;100.00
24788;BME280;12883;52.662;5.196;2022-08-25T01:39:10;101726.13;;;21.63;100.00
24788;BME280;12883;52.662;5.196;2022-08-25T01:41:44;101720.72;;;21.63;100.00
24788;BME280;12883;52.662;5.196;2022-08-25T01:44:14;101721.22;;;21.60;100.00
24788;BME280;12883;52.662;5.196;2022-08-25T01:46:41;101743.03;;;22.61;100.00
24788;BME280;12883;52.662;5.196;2022-08-25T01:49:06;101742.75;;;23.52;100.00
24788;BME280;12883;52.662;5.196;2022-08-25T01:51:38;101739.25;;;24.03;100.00
24788;BME280;12883;52.662;5.196;2022-08-25T01:54:04;101749.69;;;24.31;100.00
24788;BME280;12883;52.662;5.196;2022-08-25T01:56:30;101747.88;;;24.62;100.00
24788;BME280;12883;52.662;5.196;2022-08-25T01:58:56;101735.16;;;23.96;100.00
24788;BME280;12883;52.662;5.196;2022-08-25T02:01:22;101701.72;;;21.96;100.00
24788;BME280;12883;52.662;5.196;2022-08-25T02:03:50;101715.94;;;21.87;100.00
24788;BME280;12883;52.662;5.196;2022-08-25T02:06:22;101713.09;;;21.77;100.00
24788;BME280;12883;52.662;5.196;2022-08-25T02:08:53;101704.03;;;21.66;100.00
24788;BME280;12883;52.662;5.196;2022-08-25T02:11:20;101709.75;;;21.70;100.00
24788;BME280;12883;52.662;5.196;2022-08-25T02:13:47;101710.25;;;21.67;100.00
24788;BME280;12883;52.662;5.196;2022-08-25T02:16:19;101713.78;;;21.67;100.00
24788;BME280;12883;52.662;5.196;2022-08-25T02:18:46;101696.00;;;21.55;100.00
24788;BME280;12883;52.662;5.196;2022-08-25T02:21:13;101708.63;;;21.66;100.00
24788;BME280;12883;52.662;5.196;2022-08-25T02:23:39;101711.97;;;21.56;100.00
24788;BME280;12883;52.662;5.196;2022-08-25T02:26:06;101712.84;;;21.62;100.00
24788;BME280;12883;52.662;5.196;2022-08-25T02:28:32;101708.63;;;21.66;100.00
24788;BME280;12883;52.662;5.196;2022-08-25T02:30:57;101704.03;;;21.66;100.00
24788;BME280;12883;52.662;5.196;2022-08-25T02:33:23;101702.72;;;21.69;100.00
24788;BME280;12883;52.662;5.196;2022-08-25T02:35:49;101699.75;;;21.70;100.00
24788;BME280;12883;52.662;5.196;2022-08-25T02:38:14;101701.63;;;21.70;100.00
24788;BME280;12883;52.662;5.196;2022-08-25T02:40:39;101704.03;;;21.66;100.00
24788;BME280;12883;52.662;5.196;2022-08-25T02:43:05;101702.72;;;21.69;100.00
24788;BME280;12883;52.662;5.196;2022-08-25T02:45:30;101727.09;;;22.17;100.00
24788;BME280;12883;52.662;5.196;2022-08-25T02:47:56;101724.38;;;23.18;100.00
24788;BME280;12883;52.662;5.196;2022-08-25T02:50:21;101721.28;;;23.87;100.00
24788;BME280;12883;52.662;5.196;2022-08-25T02:52:47;101704.28;;;24.07;100.00
24788;BME280;12883;52.662;5.196;2022-08-25T02:55:15;101733.22;;;24.63;100.00
24788;BME280;12883;52.662;5.196;2022-08-25T02:57:41;101734.59;;;24.80;100.00
24788;BME280;12883;52.662;5.196;2022-08-25T03:00:09;101677.78;;;22.58;100.00
24788;BME280;12883;52.662;5.196;2022-08-25T03:02:35;101689.16;;;22.07;100.00
24788;BME280;12883;52.662;5.196;2022-08-25T03:05:00;101687.38;;;21.96;100.00
24788;BME280;12883;52.662;5.196;2022-08-25T03:07:26;101680.88;;;21.92;100.00
24788;BME280;12883;52.662;5.196;2022-08-25T03:09:52;101677.78;;;21.83;100.00
24788;BME280;12883;52.662;5.196;2022-08-25T03:12:17;101683.19;;;21.83;100.00
24788;BME280;12883;52.662;5.196;2022-08-25T03:14:42;101673.13;;;21.79;100.00
24788;BME280;12883;52.662;5.196;2022-08-25T03:17:08;101677.22;;;21.81;100.00
24788;BME280;12883;52.662;5.196;2022-08-25T03:19:33;101678.03;;;21.82;100.00
24788;BME280;12883;52.662;5.196;2022-08-25T03:21:59;101664.72;;;21.75;100.00
24788;BME280;12883;52.662;5.196;2022-08-25T03:24:25;101675.31;;;21.82;100.00
24788;BME280;12883;52.662;5.196;2022-08-25T03:26:51;101668.84;;;21.83;100.00
24788;BME280;12883;52.662;5.196;2022-08-25T03:29:30;101667.44;;;21.80;100.00
24788;BME280;12883;52.662;5.196;2022-08-25T03:31:56;101667.22;;;21.82;100.00
24788;BME280;12883;52.662;5.196;2022-08-25T03:34:26;101670.47;;;21.84;100.00
24788;BME280;12883;52.662;5.196;2022-08-25T03:36:54;101661.56;;;21.83;100.00
24788;BME280;12883;52.662;5.196;2022-08-25T03:39:22;101658.00;;;21.78;100.00
24788;BME280;12883;52.662;5.196;2022-08-25T03:41:50;101654.69;;;21.76;100.00
24788;BME280;12883;52.662;5.196;2022-08-25T03:44:17;101664.75;;;21.80;100.00
24788;BME280;12883;52.662;5.196;2022-08-25T03:46:46;101684.00;;;22.85;100.00
24788;BME280;12883;52.662;5.196;2022-08-25T03:49:15;101693.84;;;23.79;100.00
24788;BME280;12883;52.662;5.196;2022-08-25T03:51:47;101691.56;;;24.17;100.00
24788;BME280;12883;52.662;5.196;2022-08-25T03:54:19;101699.22;;;24.55;100.00
24788;BME280;12883;52.662;5.196;2022-08-25T03:56:45;101705.00;;;24.84;100.00
24788;BME280;12883;52.662;5.196;2022-08-25T03:59:11;101665.28;;;23.61;100.00
24788;BME280;12883;52.662;5.196;2022-08-25T04:01:38;101660.56;;;22.16;100.00
24788;BME280;12883;52.662;5.196;2022-08-25T04:04:04;101638.25;;;21.77;100.00
24788;BME280;12883;52.662;5.196;2022-08-25T04:06:30;101650.59;;;21.73;100.00
24788;BME280;12883;52.662;5.196;2022-08-25T04:08:55;101645.97;;;21.69;100.00
24788;BME280;12883;52.662;5.196;2022-08-25T04:11:23;101614.09;;;21.49;100.00
24788;BME280;12883;52.662;5.196;2022-08-25T04:13:50;101640.41;;;21.59;100.00
24788;BME280;12883;52.662;5.196;2022-08-25T04:16:21;101635.09;;;21.64;100.00
24788;BME280;12883;52.662;5.196;2022-08-25T04:18:48;101641.50;;;21.58;100.00
24788;BME280;12883;52.662;5.196;2022-08-25T04:21:14;101635.09;;;21.64;100.00
24788;BME280;12883;52.662;5.196;2022-08-25T04:23:41;101609.38;;;21.40;100.00
24788;BME280;12883;52.662;5.196;2022-08-25T04:26:12;101631.75;;;21.57;100.00
24788;BME280;12883;52.662;5.196;2022-08-25T04:28:39;101614.09;;;21.49;100.00
24788;BME280;12883;52.662;5.196;2022-08-25T04:33:32;101623.66;;;21.57;100.00
24788;BME280;12883;52.662;5.196;2022-08-25T04:35:57;101619.88;;;21.58;100.00
24788;BME280;12883;52.662;5.196;2022-08-25T04:38:23;101620.44;;;21.60;100.00
24788;BME280;12883;52.662;5.196;2022-08-25T04:40:55;101613.31;;;21.54;100.00
24788;BME280;12883;52.662;5.196;2022-08-25T04:43:21;101620.38;;;21.55;100.00
24788;BME280;12883;52.662;5.196;2022-08-25T04:45:46;101645.66;;;22.13;100.00
24788;BME280;12883;52.662;5.196;2022-08-25T04:48:12;101646.34;;;23.20;100.00
24788;BME280;12883;52.662;5.196;2022-08-25T04:50:38;101660.00;;;23.91;100.00
24788;BME280;12883;52.662;5.196;2022-08-25T04:53:04;101653.59;;;24.17;100.00
24788;BME280;12883;52.662;5.196;2022-08-25T04:55:29;101660.44;;;24.55;100.00
24788;BME280;12883;52.662;5.196;2022-08-25T04:57:55;101659.63;;;24.74;100.00
24788;BME280;12883;52.662;5.196;2022-08-25T05:00:20;101637.38;;;22.46;100.00
24788;BME280;12883;52.662;5.196;2022-08-25T05:02:45;101633.53;;;21.89;100.00
24788;BME280;12883;52.662;5.196;2022-08-25T05:05:11;101618.56;;;21.60;100.00
24788;BME280;12883;52.662;5.196;2022-08-25T05:07:36;101616.97;;;21.64;100.00
24788;BME280;12883;52.662;5.196;2022-08-25T05:10:02;101628.03;;;21.63;100.00
24788;BME280;12883;52.662;5.196;2022-08-25T05:12:27;101625.31;;;21.63;100.00
24788;BME280;12883;52.662;5.196;2022-08-25T05:14:53;101624.28;;;21.64;100.00
24788;BME280;12883;52.662;5.196;2022-08-25T05:17:18;101633.78;;;21.66;100.00
24788;BME280;12883;52.662;5.196;2022-08-25T05:19:44;101635.22;;;21.74;100.00
24788;BME280;12883;52.662;5.196;2022-08-25T05:22:09;101640.56;;;21.69;100.00
24788;BME280;12883;52.662;5.196;2022-08-25T05:24:35;101639.25;;;21.71;100.00
24788;BME280;12883;52.662;5.196;2022-08-25T05:27:00;101644.66;;;21.71;100.00
24788;BME280;12883;52.662;5.196;2022-08-25T05:29:27;101646.59;;;21.76;100.00
24788;BME280;12883;52.662;5.196;2022-08-25T05:31:52;101642.00;;;21.76;100.00
24788;BME280;12883;52.662;5.196;2022-08-25T05:34:18;101643.41;;;21.79;100.00
24788;BME280;12883;52.662;5.196;2022-08-25T05:36:44;101638.56;;;21.81;100.00
24788;BME280;12883;52.662;5.196;2022-08-25T05:39:09;101638.00;;;21.79;100.00
24788;BME280;12883;52.662;5.196;2022-08-25T05:41:35;101630.59;;;21.69;100.00
24788;BME280;12883;52.662;5.196;2022-08-25T05:44:01;101646.13;;;21.84;100.00
24788;BME280;12883;52.662;5.196;2022-08-25T05:46:26;101666.06;;;22.79;100.00
24788;BME280;12883;52.662;5.196;2022-08-25T05:48:52;101671.53;;;23.67;100.00
24788;BME280;12883;52.662;5.196;2022-08-25T05:51:18;101685.06;;;24.28;100.00
24788;BME280;12883;52.662;5.196;2022-08-25T05:53:45;101688.09;;;24.52;100.00
24788;BME280;12883;52.662;5.196;2022-08-25T05:56:11;101695.50;;;24.86;100.00
24788;BME280;12883;52.662;5.196;2022-08-25T05:58:38;101684.34;;;24.78;100.00
24788;BME280;12883;52.662;5.196;2022-08-25T06:01:04;101638.91;;;22.37;100.00
24788;BME280;12883;52.662;5.196;2022-08-25T06:03:49;101653.00;;;22.18;100.00
24788;BME280;12883;52.662;5.196;2022-08-25T06:06:17;101647.56;;;22.13;100.00
24788;BME280;12883;52.662;5.196;2022-08-25T06:08:43;101654.69;;;22.19;100.00
24788;BME280;12883;52.662;5.196;2022-08-25T06:11:10;101656.09;;;22.26;100.00
24788;BME280;12883;52.662;5.196;2022-08-25T06:13:35;101633.22;;;22.12;100.00
24788;BME280;12883;52.662;5.196;2022-08-25T06:16:01;101649.28;;;22.24;100.00
24788;BME280;12883;52.662;5.196;2022-08-25T06:18:26;101656.09;;;22.26;100.00
24788;BME280;12883;52.662;5.196;2022-08-25T06:20:52;101656.38;;;22.30;100.00
24788;BME280;12883;52.662;5.196;2022-08-25T06:23:18;101656.34;;;22.25;100.00
24788;BME280;12883;52.662;5.196;2022-08-25T06:25:51;101655.28;;;22.26;100.00
24788;BME280;12883;52.662;5.196;2022-08-25T06:28:17;101656.84;;;22.22;100.00
24788;BME280;12883;52.662;5.196;2022-08-25T06:30:43;101648.50;;;22.23;100.00
24788;BME280;12883;52.662;5.196;2022-08-25T06:33:09;101643.63;;;22.25;100.00
24788;BME280;12883;52.662;5.196;2022-08-25T06:35:34;101652.53;;;22.21;100.00
24788;BME280;12883;52.662;5.196;2022-08-25T06:38:01;101644.78;;;22.29;100.00
24788;BME280;12883;52.662;5.196;2022-08-25T06:40:26;101649.88;;;22.26;100.00
24788;BME280;12883;52.662;5.196;2022-08-25T06:42:51;101656.44;;;22.35;100.00
24788;BME280;12883;52.662;5.196;2022-08-25T06:45:17;101670.56;;;22.68;100.00
24788;BME280;12883;52.662;5.196;2022-08-25T06:47:43;101681.97;;;23.90;100.00
24788;BME280;12883;52.662;5.196;2022-08-25T06:50:09;101691.66;;;24.57;100.00
24788;BME280;12883;52.662;5.196;2022-08-25T06:52:34;101691.94;;;24.86;100.00
24788;BME280;12883;52.662;5.196;2022-08-25T06:55:00;101700.63;;;25.23;100.00
24788;BME280;12883;52.662;5.196;2022-08-25T06:57:25;101704.41;;;25.52;100.00
24788;BME280;12883;52.662;5.196;2022-08-25T06:59:51;101676.94;;;23.62;100.00
24788;BME280;12883;52.662;5.196;2022-08-25T07:02:16;101663.91;;;22.81;100.00
24788;BME280;12883;52.662;5.196;2022-08-25T07:04:41;101652.47;;;22.69;100.00
24788;BME280;12883;52.662;5.196;2022-08-25T07:07:07;101644.78;;;22.56;100.00
24788;BME280;12883;52.662;5.196;2022-08-25T07:09:32;101657.91;;;22.74;100.00
24788;BME280;12883;52.662;5.196;2022-08-25T07:12:00;101642.19;;;22.71;100.00
24788;BME280;12883;52.662;5.196;2022-08-25T07:14:27;101664.44;;;22.78;100.00
24788;BME280;12883;52.662;5.196;2022-08-25T07:16:52;101655.34;;;22.89;100.00
24788;BME280;12883;52.662;5.196;2022-08-25T07:19:17;101656.53;;;23.03;100.00
24788;BME280;12883;52.662;5.196;2022-08-25T07:21:50;101653.31;;;23.11;100.00
24788;BME280;12883;52.662;5.196;2022-08-25T07:24:16;101652.31;;;23.17;100.00
24788;BME280;12883;52.662;5.196;2022-08-25T07:26:42;101650.16;;;23.19;100.00
24788;BME280;12883;52.662;5.196;2022-08-25T07:29:11;101652.34;;;23.27;100.00
24788;BME280;12883;52.662;5.196;2022-08-25T07:31:37;101663.53;;;23.35;100.00
24788;BME280;12883;52.662;5.196;2022-08-25T07:34:04;101671.41;;;23.42;100.00
24788;BME280;12883;52.662;5.196;2022-08-25T07:36:47;101670.13;;;23.54;100.00
24788;BME280;12883;52.662;5.196;2022-08-25T07:39:13;101669.34;;;23.64;100.00
24788;BME280;12883;52.662;5.196;2022-08-25T07:41:40;101664.56;;;23.81;100.00
24788;BME280;12883;52.662;5.196;2022-08-25T07:44:06;101672.72;;;23.86;100.00
24788;BME280;12883;52.662;5.196;2022-08-25T07:46:32;101707.72;;;24.84;100.00
24788;BME280;12883;52.662;5.196;2022-08-25T07:48:58;101710.31;;;25.69;100.00
24788;BME280;12883;52.662;5.196;2022-08-25T07:51:24;101720.25;;;26.08;100.00
24788;BME280;12883;52.662;5.196;2022-08-25T07:53:49;101714.91;;;26.42;100.00
24788;BME280;12883;52.662;5.196;2022-08-25T07:56:15;101719.78;;;26.55;100.00
24788;BME280;12883;52.662;5.196;2022-08-25T07:58:42;101692.84;;;26.43;100.00
24788;BME280;12883;52.662;5.196;2022-08-25T08:01:19;101671.53;;;24.38;100.00
24788;BME280;12883;52.662;5.196;2022-08-25T08:03:46;101665.81;;;24.20;100.00
24788;BME280;12883;52.662;5.196;2022-08-25T08:06:13;101662.53;;;24.23;100.00
24788;BME280;12883;52.662;5.196;2022-08-25T08:08:40;101653.31;;;24.24;100.00
24788;BME280;12883;52.662;5.196;2022-08-25T08:11:35;101662.59;;;24.43;100.00
24788;BME280;12883;52.662;5.196;2022-08-25T08:14:05;101657.69;;;24.45;100.00
24788;BME280;12883;52.662;5.196;2022-08-25T08:16:32;101665.31;;;24.48;100.00
24788;BME280;12883;52.662;5.196;2022-08-25T08:18:58;101669.09;;;24.42;100.00
24788;BME280;12883;52.662;5.196;2022-08-25T08:21:28;101669.06;;;24.47;100.00
24788;BME280;12883;52.662;5.196;2022-08-25T08:23:54;101662.88;;;24.56;100.00
24788;BME280;12883;52.662;5.196;2022-08-25T08:26:20;101656.88;;;24.54;100.00
24788;BME280;12883;52.662;5.196;2022-08-25T08:28:46;101671.84;;;24.67;100.00
24788;BME280;12883;52.662;5.196;2022-08-25T08:31:11;101667.50;;;24.81;100.00
24788;BME280;12883;52.662;5.196;2022-08-25T08:33:37;101671.06;;;24.86;100.00
24788;BME280;12883;52.662;5.196;2022-08-25T08:36:06;101660.44;;;24.95;100.00
24788;BME280;12883;52.662;5.196;2022-08-25T08:38:35;101658.25;;;25.17;100.00
24788;BME280;12883;52.662;5.196;2022-08-25T08:44:07;101658.50;;;25.25;100.00
24788;BME280;12883;52.662;5.196;2022-08-25T08:46:41;101673.09;;;26.28;100.00
24788;BME280;12883;52.662;5.196;2022-08-25T08:49:20;101683.59;;;27.11;100.00
24788;BME280;12883;52.662;5.196;2022-08-25T08:51:56;101669.38;;;27.42;100.00
24788;BME280;12883;52.662;5.196;2022-08-25T08:54:24;101674.84;;;27.66;100.00
24788;BME280;12883;52.662;5.196;2022-08-25T08:57:01;101676.06;;;27.78;100.00
24788;BME280;12883;52.662;5.196;2022-08-25T08:59:31;101650.09;;;26.44;100.00
24788;BME280;12883;52.662;5.196;2022-08-25T09:02:03;101645.13;;;25.54;100.00
24788;BME280;12883;52.662;5.196;2022-08-25T09:04:58;101654.91;;;25.50;100.00
24788;BME280;12883;52.662;5.196;2022-08-25T09:07:30;101638.84;;;25.63;100.00
24788;BME280;12883;52.662;5.196;2022-08-25T09:09:57;101649.66;;;25.73;100.00
24788;BME280;12883;52.662;5.196;2022-08-25T09:23:45;101643.25;;;26.08;100.00
24788;BME280;12883;52.662;5.196;2022-08-25T09:26:50;101639.13;;;26.15;100.00
24788;BME280;12883;52.662;5.196;2022-08-25T09:29:13;101643.94;;;26.28;100.00
24788;BME280;12883;52.662;5.196;2022-08-25T09:31:40;101641.81;;;26.20;100.00
24788;BME280;12883;52.662;5.196;2022-08-25T09:36:41;101640.91;;;26.35;100.00
24788;BME280;12883;52.662;5.196;2022-08-25T09:39:07;101638.72;;;26.37;100.00
24788;BME280;12883;52.662;5.196;2022-08-25T09:41:42;101641.44;;;26.37;100.00
24788;BME280;12883;52.662;5.196;2022-08-25T09:44:23;101648.47;;;26.43;100.00
24788;BME280;12883;52.662;5.196;2022-08-25T09:49:20;101664.63;;;28.18;95.58
24788;BME280;12883;52.662;5.196;2022-08-25T09:51:45;101663.69;;;28.46;90.28
24788;BME280;12883;52.662;5.196;2022-08-25T09:56:52;101652.38;;;28.85;85.46
24788;BME280;12883;52.662;5.196;2022-08-25T09:59:28;101632.97;;;27.80;97.19
24788;BME280;12883;52.662;5.196;2022-08-25T10:01:57;101624.94;;;26.90;100.00
24788;BME280;12883;52.662;5.196;2022-08-25T10:04:36;101626.88;;;26.89;100.00
24788;BME280;12883;52.662;5.196;2022-08-25T10:07:05;101612.19;;;26.85;100.00
24788;BME280;12883;52.662;5.196;2022-08-25T10:09:51;101606.13;;;26.88;100.00
24788;BME280;12883;52.662;5.196;2022-08-25T10:12:23;101614.63;;;26.87;100.00
24788;BME280;12883;52.662;5.196;2022-08-25T10:14:53;101605.84;;;26.90;100.00
24788;BME280;12883;52.662;5.196;2022-08-25T10:17:27;101611.69;;;27.07;100.00
24788;BME280;12883;52.662;5.196;2022-08-25T10:20:11;101617.72;;;27.04;100.00
24788;BME280;12883;52.662;5.196;2022-08-25T10:22:38;101604.00;;;27.14;100.00
24788;BME280;12883;52.662;5.196;2022-08-25T10:25:06;101611.31;;;27.18;100.00
24788;BME280;12883;52.662;5.196;2022-08-25T10:35:26;101596.88;;;27.41;100.00
24788;BME280;12883;52.662;5.196;2022-08-25T10:41:05;101595.22;;;27.64;100.00
24788;BME280;12883;52.662;5.196;2022-08-25T10:45:44;101604.09;;;28.11;100.00
24788;BME280;12883;52.662;5.196;2022-08-25T10:50:57;101611.16;;;29.67;84.89
24788;BME280;12883;52.662;5.196;2022-08-25T10:53:57;101601.72;;;29.73;81.52
24788;BME280;12883;52.662;5.196;2022-08-25T10:56:32;101602.31;;;29.84;80.26
24788;BME280;12883;52.662;5.196;2022-08-25T11:05:09;101566.84;;;28.02;95.19
24788;BME280;12883;52.662;5.196;2022-08-25T11:07:44;101557.75;;;28.06;97.01
24788;BME280;12883;52.662;5.196;2022-08-25T11:10:18;101566.72;;;28.12;94.42
24788;BME280;12883;52.662;5.196;2022-08-25T11:12:54;101561.69;;;28.19;95.80
24788;BME280;12883;52.662;5.196;2022-08-25T11:16:02;101565.75;;;28.21;91.88
24788;BME280;12883;52.662;5.196;2022-08-25T11:18:31;101567.56;;;28.26;91.84
24788;BME280;12883;52.662;5.196;2022-08-25T11:21:08;101560.56;;;28.38;95.11
24788;BME280;12883;52.662;5.196;2022-08-25T11:24:06;101559.97;;;28.41;91.19
24788;BME280;12883;52.662;5.196;2022-08-25T11:26:32;101537.13;;;28.51;88.83
24788;BME280;12883;52.662;5.196;2022-08-25T11:29:13;101547.06;;;28.60;84.20
24788;BME280;12883;52.662;5.196;2022-08-25T11:31:51;101540.88;;;28.55;82.18
24788;BME280;12883;52.662;5.196;2022-08-25T11:34:17;101542.81;;;28.68;82.60
24788;BME280;12883;52.662;5.196;2022-08-25T11:36:53;101546.69;;;28.80;84.41
24788;BME280;12883;52.662;5.196;2022-08-25T11:44:57;101555.22;;;29.06;81.65
24788;BME280;12883;52.662;5.196;2022-08-25T11:47:38;101557.34;;;29.98;75.48
24788;BME280;12883;52.662;5.196;2022-08-25T11:50:24;101548.22;;;30.47;71.15
24788;BME280;12883;52.662;5.196;2022-08-25T11:52:52;101547.25;;;30.73;69.53
24788;BME280;12883;52.662;5.196;2022-08-25T12:00:45;101520.00;;;29.31;73.70
24788;BME280;12883;52.662;5.196;2022-08-25T12:21:50;101514.72;;;29.35;70.51
24788;BME280;12883;52.662;5.196;2022-08-25T12:27:15;101503.97;;;29.38;70.01
24788;BME280;12883;52.662;5.196;2022-08-25T12:32:39;101508.50;;;29.56;68.72
24788;BME280;12883;52.662;5.196;2022-08-25T12:35:25;101506.16;;;29.63;70.31
24788;BME280;12883;52.662;5.196;2022-08-25T12:38:03;101511.44;;;29.60;68.46
24788;BME280;12883;52.662;5.196;2022-08-25T12:40:38;101508.78;;;29.68;69.88
24788;BME280;12883;52.662;5.196;2022-08-25T12:51:50;101526.03;;;31.26;58.78
24788;BME280;12883;52.662;5.196;2022-08-25T12:54:35;101510.22;;;31.32;58.02
24788;BME280;12883;52.662;5.196;2022-08-25T12:59:49;101500.38;;;30.31;66.01
24788;BME280;12883;52.662;5.196;2022-08-25T13:11:12;101485.09;;;29.86;73.11
24788;BME280;12883;52.662;5.196;2022-08-25T13:13:58;101497.94;;;29.85;70.21
24788;BME280;12883;52.662;5.196;2022-08-25T13:16:28;101489.50;;;29.73;67.92
24788;BME280;12883;52.662;5.196;2022-08-25T13:18:55;101491.13;;;29.74;70.10
24788;BME280;12883;52.662;5.196;2022-08-25T13:21:39;101483.78;;;29.83;69.19
24788;BME280;12883;52.662;5.196;2022-08-25T13:24:10;101472.81;;;29.83;69.51
24788;BME280;12883;52.662;5.196;2022-08-25T13:26:39;101483.41;;;29.98;70.16
24788;BME280;12883;52.662;5.196;2022-08-25T13:31:35;101474.69;;;29.96;66.57
24788;BME280;12883;52.662;5.196;2022-08-25T13:34:07;101481.38;;;30.04;66.38
24788;BME280;12883;52.662;5.196;2022-08-25T13:36:44;101483.47;;;30.07;66.29
24788;BME280;12883;52.662;5.196;2022-08-25T13:39:28;101478.19;;;30.10;67.15
24788;BME280;12883;52.662;5.196;2022-08-25T13:41:56;101458.16;;;30.01;65.27
24788;BME280;12883;52.662;5.196;2022-08-25T13:44:24;101483.88;;;30.14;65.14
24788;BME280;12883;52.662;5.196;2022-08-25T13:47:35;101504.22;;;31.21;60.84
24788;BME280;12883;52.662;5.196;2022-08-25T13:50:30;101496.88;;;31.73;58.44
24788;BME280;12883;52.662;5.196;2022-08-25T13:53:12;101502.50;;;31.93;57.74
24788;BME280;12883;52.662;5.196;2022-08-25T13:55:48;101488.47;;;31.86;57.38
24788;BME280;12883;52.662;5.196;2022-08-25T13:58:19;101487.69;;;31.86;56.55
24788;BME280;12883;52.662;5.196;2022-08-25T14:03:40;101466.38;;;30.23;62.88
24788;BME280;12883;52.662;5.196;2022-08-25T14:06:26;101460.13;;;30.31;61.84
24788;BME280;12883;52.662;5.196;2022-08-25T14:11:55;101458.63;;;30.25;61.25
24788;BME280;12883;52.662;5.196;2022-08-25T14:16:52;101433.56;;;30.10;59.86
24788;BME280;12883;52.662;5.196;2022-08-25T14:19:21;101460.97;;;30.40;59.91
24788;BME280;12883;52.662;5.196;2022-08-25T14:21:48;101456.13;;;30.37;58.91
24788;BME280;12883;52.662;5.196;2022-08-25T14:24:16;101447.41;;;30.35;59.74
24788;BME280;12883;52.662;5.196;2022-08-25T14:26:41;101440.81;;;30.36;61.19
24788;BME280;12883;52.662;5.196;2022-08-25T14:29:07;101448.38;;;30.39;60.63
24788;BME280;12883;52.662;5.196;2022-08-25T14:31:35;101437.28;;;30.44;61.45
24788;BME280;12883;52.662;5.196;2022-08-25T14:34:06;101438.56;;;30.38;60.31
24788;BME280;12883;52.662;5.196;2022-08-25T14:36:34;101427.94;;;30.45;58.87
24788;BME280;12883;52.662;5.196;2022-08-25T14:39:00;101431.16;;;30.47;59.42
24788;BME280;12883;52.662;5.196;2022-08-25T14:41:31;101438.13;;;30.53;59.45
24788;BME280;12883;52.662;5.196;2022-08-25T14:43:59;101432.16;;;30.51;59.30
24788;BME280;12883;52.662;5.196;2022-08-25T14:46:27;101459.66;;;31.24;58.13